ADDS METAR Data INFO
IDs: Format: Raw Decoded Include TAF

Data at: 1102 UTC 24 Nov 2017

KT65 241055Z AUTO 00000KT 10SM CLR 08/06 A3002 RMK AO2 T00770056
KT65 241035Z AUTO 00000KT 10SM CLR 08/05 A3002 RMK AO2 T00750052
KT65 241015Z AUTO 00000KT 10SM CLR 08/06 A3002 RMK AO2 T00770056
KT65 240955Z AUTO 00000KT 10SM CLR 08/06 A3003 RMK AO2 T00780060
KT65 240935Z AUTO 00000KT 7SM CLR 08/06 A3003 RMK AO2 T00750058
KT65 240915Z AUTO 00000KT 10SM CLR 08/06 A3004 RMK AO2 T00800056
KT65 240855Z AUTO 00000KT 10SM CLR 08/06 A3004 RMK AO2 T00820060
KT65 240835Z AUTO 00000KT 10SM CLR 08/06 A3004 RMK AO2 T00750058
KT65 240815Z AUTO 00000KT 10SM CLR 09/06 A3005 RMK AO2 T00890061
KT65 240755Z AUTO 00000KT 10SM CLR 09/06 A3005 RMK AO2 T00940060
KT65 240735Z AUTO 00000KT 10SM CLR 09/06 A3006 RMK AO2 T00930062
KT65 240715Z AUTO 23003KT 10SM CLR 10/06 A3006 RMK AO2 T00950064
KT65 240655Z AUTO 00000KT 7SM CLR 11/07 A3006 RMK AO2 T01060067
KT65 240635Z AUTO 00000KT 10SM CLR 11/07 A3007 RMK AO2 T01060065
KT65 240615Z AUTO 20003KT 7SM CLR 11/06 A3007 RMK AO2 T01070063
KT65 240555Z AUTO 00000KT 7SM CLR 11/06 A3008 RMK AO2 T01090061 10184 20104 402260067
KT65 240535Z AUTO 00000KT CLR 12/06 A3009 RMK AO2 T01160060 PWINO
KT65 240515Z AUTO 00000KT CLR 12/06 A3009 RMK AO2 T01210060 PWINO
KT65 240455Z AUTO 00000KT CLR 12/06 A3010 RMK AO2 T01230058 PWINO
KT65 240435Z AUTO 00000KT CLR 12/06 A3010 RMK AO2 T01240057 PWINO
KT65 240415Z AUTO 00000KT CLR 12/06 A3010 RMK AO2 T01230055 PWINO
KT65 240355Z AUTO 00000KT CLR 13/05 A3010 RMK AO2 T01260053 PWINO
KT65 240335Z AUTO 00000KT CLR 13/05 A3010 RMK AO2 T01280053 PWINO
KT65 240315Z AUTO 00000KT CLR 13/05 A3010 RMK AO2 T01300051 PWINO
KT65 240255Z AUTO 00000KT CLR 14/05 A3010 RMK AO2 T01350049 PWINO
KT65 240235Z AUTO 00000KT CLR 14/05 A3010 RMK AO2 T01380046 PWINO
KT65 240215Z AUTO 15003KT CLR 14/04 A3010 RMK AO2 T01410043 PWINO
KT65 240155Z AUTO 00000KT CLR 15/04 A3010 RMK AO2 T01460044 PWINO
KT65 240135Z AUTO 11003KT CLR 15/04 A3009 RMK AO2 T01540042 PWINO
KT65 240115Z AUTO 11003KT CLR 16/04 A3009 RMK AO2 T01600038 PWINO
KT65 240055Z AUTO 00000KT CLR 17/04 A3008 RMK AO2 T01650035 PWINO
KT65 240035Z AUTO 11005KT CLR 17/03 A3008 RMK AO2 T01740030 PWINO
KT65 240015Z AUTO 09006KT CLR 18/02 A3008 RMK AO2 T01790022 PWINO
KT65 232355Z AUTO 00000KT CLR 19/02 A3007 RMK AO2 T01890022 10226 20189 PWINO
KT65 232335Z AUTO 00000KT CLR 20/01 A3007 RMK AO2 T02040014 PWINO
KT65 232315Z AUTO 00000KT CLR 21/01 A3007 RMK AO2 T02130008 PWINO
KT65 232255Z AUTO 00000KT CLR 22/00 A3007 RMK AO2 T02190003 PWINO
KT65 232235Z AUTO 00000KT CLR 22/01 A3007 RMK AO2 T02240011 PWINO
KT65 232215Z AUTO 00000KT CLR 22/00 A3007 RMK AO2 T02210004 PWINO
KT65 232155Z AUTO 01003KT CLR 22/01 A3007 RMK AO2 T02230008 PWINO
KT65 232135Z AUTO 00000KT CLR 22/02 A3008 RMK AO2 T02220015 PWINO
KT65 232115Z AUTO 35006KT CLR 22/02 A3008 RMK AO2 T02210022 PWINO
KT65 232055Z AUTO 34005KT CLR 22/03 A3009 RMK AO2 T02230025 PWINO
KT65 232035Z AUTO 36005KT CLR 22/02 A3009 RMK AO2 T02190023 PWINO
KT65 232015Z AUTO 00000KT CLR 22/02 A3010 RMK AO2 T02160024 PWINO
KT65 231955Z AUTO 00000KT CLR 22/03 A3010 RMK AO2 T02160029 PWINO
KT65 231935Z AUTO 33006KT CLR 22/03 A3012 RMK AO2 T02160033 PWINO
KT65 231915Z AUTO 36005KT CLR 21/03 A3013 RMK AO2 T02110029 PWINO
KT65 231855Z AUTO 31005KT CLR 21/03 A3014 RMK AO2 T02090030 PWINO
KT65 231835Z AUTO 35003KT CLR 20/03 A3016 RMK AO2 T02000026 PWINO
KT65 231815Z AUTO 01008KT CLR 20/03 A3017 RMK AO2 T01980025 PWINO
KT65 231755Z AUTO 01006KT CLR 19/02 A3018 RMK AO2 T01930023 10193 20067 PWINO
KT65 231735Z AUTO 33005KT CLR 19/02 A3019 RMK AO2 T01900018 PWINO
KT65 231715Z AUTO 00000KT CLR 18/02 A3020 RMK AO2 T01800019 PWINO
KT65 231655Z AUTO 36004KT CLR 18/02 A3021 RMK AO2 T01780023 PWINO
KT65 231635Z AUTO 35003KT CLR 17/03 A3022 RMK AO2 T01690031 PWINO
KT65 231615Z AUTO 02004KT CLR 16/04 A3022 RMK AO2 T01600038 PWINO
KT65 231555Z AUTO 00000KT CLR 15/05 A3023 RMK AO2 T01460050 PWINO
KT65 231535Z AUTO 36005KT CLR 14/05 A3023 RMK AO2 T01390054 PWINO
KT65 231515Z AUTO 35006KT CLR 13/06 A3023 RMK AO2 T01300059 PWINO
KT65 231455Z AUTO 34005KT CLR 12/06 A3023 RMK AO2 T01180058 PWINO
KT65 231435Z AUTO 36005KT CLR 11/06 A3023 RMK AO2 T01060055 PWINO
KT65 231415Z AUTO 34004KT CLR 10/06 A3023 RMK AO2 T00970056 PWINO
KT65 231355Z AUTO 34004KT 10SM CLR 09/06 A3024 RMK AO2 T00870055
KT65 231335Z AUTO 33004KT 10SM CLR 08/06 A3023 RMK AO2 T00750055
KT65 231315Z AUTO 33003KT 10SM CLR 07/05 A3022 RMK AO2 T00670050
KT65 231255Z AUTO 35005KT 10SM CLR 07/05 A3022 RMK AO2 T00720051
KT65 231235Z AUTO 34004KT 10SM CLR 08/05 A3021 RMK AO2 T00760052
KT65 231215Z AUTO 34004KT 10SM CLR 08/05 A3020 RMK AO2 T00750053
KT65 231155Z AUTO 32004KT 10SM CLR 07/06 A3020 RMK AO2 T00710055 10115 20070
KT65 231135Z AUTO 33005KT 10SM CLR 08/06 A3019 RMK AO2 T00750056
KT65 231115Z AUTO 35003KT 10SM CLR 08/06 A3019 RMK AO2 T00800060
KT65 231055Z AUTO 32004KT 10SM CLR 08/06 A3019 RMK AO2 T00760059
KT65 231035Z AUTO 33005KT 10SM CLR 08/06 A3019 RMK AO2 T00820062
KT65 231015Z AUTO 33005KT 10SM CLR 09/07 A3019 RMK AO2 T00870065
KT65 230955Z AUTO 33005KT 10SM CLR 09/07 A3019 RMK AO2 T00880066
KT65 230935Z AUTO 34005KT 10SM CLR 09/07 A3019 RMK AO2 T00870065
KT65 230915Z AUTO 32004KT 10SM CLR 09/07 A3019 RMK AO2 T00910067
KT65 230855Z AUTO 33004KT 10SM CLR 10/07 A3019 RMK AO2 T00950069
KT65 230835Z AUTO 33005KT 10SM SCT021 09/07 A3020 RMK AO2 T00940071
KT65 230815Z AUTO 30003KT 7SM BKN023 BKN027 10/07 A3020 RMK AO2 T00950070
KT65 230755Z AUTO 34003KT 10SM OVC023 10/07 A3020 RMK AO2 T00970072
KT65 230735Z AUTO 33004KT 10SM OVC025 10/08 A3021 RMK AO2 T01000075
KT65 230715Z AUTO 33005KT 7SM OVC027 10/08 A3022 RMK AO2 T01000076
KT65 230655Z AUTO 33005KT 10SM OVC027 11/08 A3022 RMK AO2 T01050078
KT65 230635Z AUTO 34005KT 10SM OVC025 11/08 A3023 RMK AO2 T01070078
KT65 230615Z AUTO 32004KT 10SM OVC025 11/08 A3023 RMK AO2 T01140083
KT65 230555Z AUTO 00000KT 10SM OVC025 11/08 A3024 RMK AO2 T01130082 10181 20110 402150110
KT65 230535Z AUTO 31003KT 10SM BKN025 OVC030 12/09 A3024 RMK AO2 T01210085
KT65 230515Z AUTO 33003KT 10SM BKN025 OVC030 12/09 A3025 RMK AO2 T01170086
KT65 230455Z AUTO 34004KT 10SM OVC027 12/09 A3025 RMK AO2 T01180085
KT65 230435Z AUTO 33004KT 7SM OVC027 13/09 A3025 RMK AO2 T01250085
KT65 230415Z AUTO 33004KT 10SM OVC025 13/09 A3024 RMK AO2 T01320090
KT65 230355Z AUTO 34003KT 10SM OVC025 13/09 A3025 RMK AO2 T01340091
KT65 230335Z AUTO 35003KT 10SM OVC025 14/09 A3025 RMK AO2 T01350092
KT65 230315Z AUTO 01003KT 10SM OVC025 14/09 A3025 RMK AO2 T01380091
KT65 230255Z AUTO 01003KT 10SM OVC025 15/09 A3024 RMK AO2 T01450093
KT65 230235Z AUTO 00000KT OVC025 15/09 A3024 RMK AO2 T01450091 PWINO
KT65 230215Z AUTO 03003KT 7SM OVC025 15/10 A3024 RMK AO2 T01460095 PWINO
KT65 230155Z AUTO 00000KT OVC025 15/10 A3023 RMK AO2 T01510095 PWINO
KT65 230135Z AUTO 00000KT OVC025 15/09 A3023 RMK AO2 T01530093 PWINO
KT65 230115Z AUTO 00000KT OVC025 16/09 A3022 RMK AO2 T01550093 PWINO
KT65 230055Z AUTO 01003KT OVC025 17/09 A3022 RMK AO2 T01670092 PWINO
KT65 230035Z AUTO 35003KT BKN025 OVC029 17/09 A3022 RMK AO2 T01700092 PWINO
KT65 230015Z AUTO 36004KT OVC025 17/09 A3021 RMK AO2 T01730092 PWINO
KT65 222355Z AUTO 01004KT OVC023 18/09 A3020 RMK AO2 T01820092 10215 20182 PWINO
KT65 222335Z AUTO 36004KT OVC023 19/09 A3020 RMK AO2 T01890092 PWINO
KT65 222315Z AUTO 36003KT BKN018 OVC024 19/09 A3020 RMK AO2 T01900093 PWINO